Terminal Aerodrome Forecast
Issued by NWS

Home | Current Version | Previous Version | Text Only | Print | Product List | Glossary On
Versions: 1 2 3 4 5 6 7 8 9 10 11 12 13 14 15 16 17
000
FTUS43 KMQT 040701 AAA
TAFSAW
TAF AMD
KSAW 040701Z 0407/0506 34003KT 4SM BR SKC
     FM041200 02004KT P6SM SCT200
     FM041900 06008KT P6SM SCT200=

USA.gov is the U.S. government's official web portal to all federal, state and local government web resources and services.